Terminal Aerodrome Forecast
Issued by NWS Paducah, KY

Home | Current Version | Previous Version | Text Only | Print | Product List | Glossary On
Versions: 1 2 3 4 5 6 7 8 9 10 11 12 13 14 15 16
000
FTUS43 KPAH 250520
TAFEVV
TAF
KEVV 250520Z 2506/2606 00000KT P6SM SKC
     FM250800 00000KT 4SM BR SCT250
     FM251400 22005KT P6SM VCTS SCT040CB BKN250
     FM251800 22005KT P6SM BKN045 PROB30 2518/2524 -TSRA BKN035CB
     FM260000 VRB03KT P6SM SCT050 BKN200=

USA.gov is the U.S. government's official web portal to all federal, state and local government web resources and services.